sensor_id;sensor_type;location;lat;lon;timestamp;pressure;altitude;pressure_sealevel;temperature;humidity
74437;BME280;62868;52.360;30.424;2023-11-21T06:41:23;1025.8;;;-2.9;64
74437;BME280;62868;52.360;30.424;2023-11-21T06:46:09;1025.8;;;-2.8;63.8
74437;BME280;62868;52.360;30.424;2023-11-21T06:51:11;1025.8;;;-2.6;63.6
74437;BME280;62868;52.360;30.424;2023-11-21T06:56:21;1025.9;;;-2.3;63.4
74437;BME280;62868;52.360;30.424;2023-11-21T07:01:49;1025.9;;;-2;63.1
74437;BME280;62868;52.360;30.424;2023-11-21T07:06:47;1025.8;;;-1.7;62.9
74437;BME280;62868;52.360;30.424;2023-11-21T07:11:37;1025.8;;;-1.5;62.7
74437;BME280;62868;52.360;30.424;2023-11-21T07:16:49;1025.8;;;-1.1;62.4
74437;BME280;62868;52.360;30.424;2023-11-21T07:21:31;1025.8;;;-0.9;62.2
74437;BME280;62868;52.360;30.424;2023-11-21T07:26:37;1025.9;;;-0.5;61.8
74437;BME280;62868;52.360;30.424;2023-11-21T07:31:09;1025.9;;;-0.5;61.5
74437;BME280;62868;52.360;30.424;2023-11-21T07:36:11;1025.9;;;-0.6;61.5
74437;BME280;62868;52.360;30.424;2023-11-21T07:41:29;1025.9;;;-0.7;61.4
74437;BME280;62868;52.360;30.424;2023-11-21T07:46:09;1025.9;;;-0.7;61.4
74437;BME280;62868;52.360;30.424;2023-11-21T07:51:29;1025.9;;;-0.3;61.1
74437;BME280;62868;52.360;30.424;2023-11-21T07:56:19;1025.9;;;0;60.8
74437;BME280;62868;52.360;30.424;2023-11-21T08:01:49;1025.9;;;0;60.8
74437;BME280;62868;52.360;30.424;2023-11-21T08:06:49;1025.9;;;0.2;60.7
74437;BME280;62868;52.360;30.424;2023-11-21T08:11:09;1026;;;0.3;60.6
74437;BME280;62868;52.360;30.424;2023-11-21T08:16:47;1026;;;0.3;60.5
74437;BME280;62868;52.360;30.424;2023-11-21T08:21:09;1026;;;0.4;60.4
74437;BME280;62868;52.360;30.424;2023-11-21T08:26:11;1025.9;;;0.5;60.3
74437;BME280;62868;52.360;30.424;2023-11-21T08:31:23;1025.9;;;0.4;60.2
74437;BME280;62868;52.360;30.424;2023-11-21T08:36:19;1025.8;;;0.5;60.1
74437;BME280;62868;52.360;30.424;2023-11-21T08:41:29;1025.8;;;0.4;59.8
74437;BME280;62868;52.360;30.424;2023-11-21T08:46:29;1025.8;;;0.5;59.6
74437;BME280;62868;52.360;30.424;2023-11-21T08:51:49;1025.9;;;0.6;59.2
74437;BME280;62868;52.360;30.424;2023-11-21T08:56:47;1025.8;;;0.6;59.1
74437;BME280;62868;52.360;30.424;2023-11-21T09:01:29;1025.8;;;0.8;58.9
74437;BME280;62868;52.360;30.424;2023-11-21T09:06:47;1025.9;;;0.8;58.6
74437;BME280;62868;52.360;30.424;2023-11-21T09:11:21;1025.9;;;0.8;58.3
74437;BME280;62868;52.360;30.424;2023-11-21T09:16:09;1025.9;;;0.9;58
74437;BME280;62868;52.360;30.424;2023-11-21T09:21:31;1026;;;1.1;57.8
74437;BME280;62868;52.360;30.424;2023-11-21T09:26:09;1026;;;1.1;57.5
74437;BME280;62868;52.360;30.424;2023-11-21T09:31:29;1026;;;1.2;57.3
74437;BME280;62868;52.360;30.424;2023-11-21T09:36:17;1025.9;;;1.4;57.2
74437;BME280;62868;52.360;30.424;2023-11-21T09:41:51;1025.9;;;1.6;57.1
74437;BME280;62868;52.360;30.424;2023-11-21T09:46:51;1025.9;;;1.7;56.8
74437;BME280;62868;52.360;30.424;2023-11-21T09:51:21;1025.9;;;1.6;56.5
74437;BME280;62868;52.360;30.424;2023-11-21T09:56:51;1025.9;;;1.4;56.4
74437;BME280;62868;52.360;30.424;2023-11-21T10:01:21;1025.9;;;1.3;56.4
74437;BME280;62868;52.360;30.424;2023-11-21T10:06:10;1026;;;1.6;56.2
74437;BME280;62868;52.360;30.424;2023-11-21T10:11:33;1025.9;;;1.7;56
74437;BME280;62868;52.360;30.424;2023-11-21T10:16:11;1025.9;;;1.6;56
74437;BME280;62868;52.360;30.424;2023-11-21T10:21:33;1025.8;;;1.4;56
74437;BME280;62868;52.360;30.424;2023-11-21T10:26:33;1025.8;;;1.3;55.9
74437;BME280;62868;52.360;30.424;2023-11-21T10:31:53;1025.9;;;1.5;55.5
74437;BME280;62868;52.360;30.424;2023-11-21T10:36:35;1025.9;;;1.5;55.3
74437;BME280;62868;52.360;30.424;2023-11-21T10:41:29;1025.9;;;1.5;55.2
74437;BME280;62868;52.360;30.424;2023-11-21T10:46:49;1025.8;;;1.7;55.1
74437;BME280;62868;52.360;30.424;2023-11-21T10:51:11;1025.8;;;1.8;55
74437;BME280;62868;52.360;30.424;2023-11-21T10:56:09;1025.9;;;2;54.9
74437;BME280;62868;52.360;30.424;2023-11-21T11:01:31;1025.9;;;2.3;54.7
74437;BME280;62868;52.360;30.424;2023-11-21T11:06:29;1026;;;2.4;54.7
74437;BME280;62868;52.360;30.424;2023-11-21T11:11:31;1026;;;2.4;54.8
74437;BME280;62868;52.360;30.424;2023-11-21T11:16:31;1026.1;;;2.1;55.1
74437;BME280;62868;52.360;30.424;2023-11-21T11:21:53;1026.2;;;1.9;55.3
74437;BME280;62868;52.360;30.424;2023-11-21T11:26:52;1026.2;;;1.7;55.4
74437;BME280;62868;52.360;30.424;2023-11-21T11:31:49;1026.2;;;1.5;55.6
74437;BME280;62868;52.360;30.424;2023-11-21T11:36:29;1026.2;;;1.4;55.6
74437;BME280;62868;52.360;30.424;2023-11-21T11:41:49;1026.3;;;1.3;55.5
74437;BME280;62868;52.360;30.424;2023-11-21T11:46:09;1026.2;;;1.1;55.7
74437;BME280;62868;52.360;30.424;2023-11-21T11:51:59;1026.2;;;0.8;55.9
74437;BME280;62868;52.360;30.424;2023-11-21T11:56:22;1026.3;;;0.7;56
74437;BME280;62868;52.360;30.424;2023-11-21T12:01:37;1026.4;;;0.9;55.8
74437;BME280;62868;52.360;30.424;2023-11-21T12:06:33;1026.5;;;0.9;55.8
74437;BME280;62868;52.360;30.424;2023-11-21T12:11:19;1026.6;;;0.8;55.9
74437;BME280;62868;52.360;30.424;2023-11-21T12:16:51;1026.6;;;0.7;56
74437;BME280;62868;52.360;30.424;2023-11-21T12:21:11;1026.6;;;0.7;56
74437;BME280;62868;52.360;30.424;2023-11-21T12:26:11;1026.6;;;0.4;56.2
74437;BME280;62868;52.360;30.424;2023-11-21T12:31:31;1026.7;;;0.2;56.3
74437;BME280;62868;52.360;30.424;2023-11-21T12:36:29;1026.8;;;-0.2;56.6
74437;BME280;62868;52.360;30.424;2023-11-21T12:41:51;1026.7;;;-0.5;56.9
74437;BME280;62868;52.360;30.424;2023-11-21T12:46:21;1026.9;;;-0.7;57.1
74437;BME280;62868;52.360;30.424;2023-11-21T12:51:19;1026.9;;;-0.9;57.3
74437;BME280;62868;52.360;30.424;2023-11-21T12:56:31;1027;;;-1;57.4
74437;BME280;62868;52.360;30.424;2023-11-21T13:01:09;1027;;;-1;57.5
74437;BME280;62868;52.360;30.424;2023-11-21T13:06:51;1027;;;-1.1;57.6
74437;BME280;62868;52.360;30.424;2023-11-21T13:11:33;1027;;;-1.1;57.7
74437;BME280;62868;52.360;30.424;2023-11-21T13:16:11;1027;;;-1.2;57.7
74437;BME280;62868;52.360;30.424;2023-11-21T13:21:09;1027.1;;;-1.2;57.8
74437;BME280;62868;52.360;30.424;2023-11-21T13:26:29;1027.1;;;-1.3;57.9
74437;BME280;62868;52.360;30.424;2023-11-21T13:31:45;1027.2;;;-1.3;57.9
74437;BME280;62868;52.360;30.424;2023-11-21T13:36:19;1027.2;;;-1.3;57.9
74437;BME280;62868;52.360;30.424;2023-11-21T13:41:17;1027.2;;;-1.3;58
74437;BME280;62868;52.360;30.424;2023-11-21T13:46:31;1027.1;;;-1.3;58
74437;BME280;62868;52.360;30.424;2023-11-21T13:51:09;1027.1;;;-1.4;58.1
74437;BME280;62868;52.360;30.424;2023-11-21T13:56:51;1027.1;;;-1.4;58.2
74437;BME280;62868;52.360;30.424;2023-11-21T14:01:41;1027.1;;;-1.5;58.3
74437;BME280;62868;52.360;30.424;2023-11-21T14:06:09;1027.2;;;-1.5;58.3
74437;BME280;62868;52.360;30.424;2023-11-21T14:11:11;1027.2;;;-1.5;58.4
74437;BME280;62868;52.360;30.424;2023-11-21T14:16:11;1027.2;;;-1.5;58.5
74437;BME280;62868;52.360;30.424;2023-11-21T14:21:51;1027.2;;;-1.4;58.5
74437;BME280;62868;52.360;30.424;2023-11-21T14:26:21;1027.2;;;-1.5;58.6
74437;BME280;62868;52.360;30.424;2023-11-21T14:31:19;1027.3;;;-1.5;58.6
74437;BME280;62868;52.360;30.424;2023-11-21T14:36:31;1027.3;;;-1.4;58.6
74437;BME280;62868;52.360;30.424;2023-11-21T14:41:09;1027.4;;;-1.5;58.6
74437;BME280;62868;52.360;30.424;2023-11-21T14:46:49;1027.5;;;-1.5;58.6
74437;BME280;62868;52.360;30.424;2023-11-21T14:51:41;1027.5;;;-1.5;58.6
74437;BME280;62868;52.360;30.424;2023-11-21T14:56:09;1027.6;;;-1.5;58.6
74437;BME280;62868;52.360;30.424;2023-11-21T15:01:09;1027.7;;;-1.4;58.6
74437;BME280;62868;52.360;30.424;2023-11-21T15:06:11;1027.8;;;-1.3;58.6
74437;BME280;62868;52.360;30.424;2023-11-21T15:11:47;1027.8;;;-1.2;58.6
74437;BME280;62868;52.360;30.424;2023-11-21T15:16:11;1027.9;;;-1.1;58.7
74437;BME280;62868;52.360;30.424;2023-11-21T15:21:19;1027.9;;;-1;58.6
74437;BME280;62868;52.360;30.424;2023-11-21T15:26:29;1027.9;;;-1;58.7
74437;BME280;62868;52.360;30.424;2023-11-21T15:31:19;1028;;;-0.9;58.7
74437;BME280;62868;52.360;30.424;2023-11-21T15:36:51;1028;;;-0.8;58.7
74437;BME280;62868;52.360;30.424;2023-11-21T15:41:51;1028;;;-0.7;58.7
74437;BME280;62868;52.360;30.424;2023-11-21T15:46:09;1028;;;-0.8;58.8
74437;BME280;62868;52.360;30.424;2023-11-21T15:51:09;1028;;;-0.7;58.7
74437;BME280;62868;52.360;30.424;2023-11-21T15:56:11;1028;;;-0.7;58.7
74437;BME280;62868;52.360;30.424;2023-11-21T16:01:53;1028;;;-0.7;58.7
74437;BME280;62868;52.360;30.424;2023-11-21T16:06:23;1028;;;-0.7;58.7
74437;BME280;62868;52.360;30.424;2023-11-21T16:11:17;1028;;;-0.7;58.8
74437;BME280;62868;52.360;30.424;2023-11-21T16:16:33;1027.9;;;-0.7;58.8
74437;BME280;62868;52.360;30.424;2023-11-21T16:21:44;1027.9;;;-0.9;58.8
74437;BME280;62868;52.360;30.424;2023-11-21T16:26:53;1028;;;-1;58.8
74437;BME280;62868;52.360;30.424;2023-11-21T16:31:41;1027.9;;;-1.2;58.9
74437;BME280;62868;52.360;30.424;2023-11-21T16:36:27;1028;;;-1.3;59
74437;BME280;62868;52.360;30.424;2023-11-21T16:41:11;1028;;;-1.3;59
74437;BME280;62868;52.360;30.424;2023-11-21T16:46:09;1028;;;-1.3;59
74437;BME280;62868;52.360;30.424;2023-11-21T16:51:51;1028.1;;;-1.3;59
74437;BME280;62868;52.360;30.424;2023-11-21T16:56:39;1028.2;;;-1.3;59
74437;BME280;62868;52.360;30.424;2023-11-21T17:01:17;1028.2;;;-1.3;59
74437;BME280;62868;52.360;30.424;2023-11-21T17:06:31;1028.3;;;-1.2;58.9
74437;BME280;62868;52.360;30.424;2023-11-21T17:11:51;1028.3;;;-1.3;58.8
74437;BME280;62868;52.360;30.424;2023-11-21T17:16:51;1028.3;;;-1.3;58.7
74437;BME280;62868;52.360;30.424;2023-11-21T17:21:31;1028.3;;;-1.4;58.6
74437;BME280;62868;52.360;30.424;2023-11-21T17:26:11;1028.3;;;-1.4;58.5
74437;BME280;62868;52.360;30.424;2023-11-21T17:31:11;1028.4;;;-1.4;58.3
74437;BME280;62868;52.360;30.424;2023-11-21T17:36:11;1028.4;;;-1.4;58.2
74437;BME280;62868;52.360;30.424;2023-11-21T17:41:51;1028.4;;;-1.4;58
74437;BME280;62868;52.360;30.424;2023-11-21T17:46:09;1028.4;;;-1.4;57.9
74437;BME280;62868;52.360;30.424;2023-11-21T17:51:19;1028.5;;;-1.4;57.8
74437;BME280;62868;52.360;30.424;2023-11-21T17:56:31;1028.5;;;-1.4;57.7
74437;BME280;62868;52.360;30.424;2023-11-21T18:01:41;1028.5;;;-1.4;57.6
74437;BME280;62868;52.360;30.424;2023-11-21T18:06:51;1028.5;;;-1.5;57.5
74437;BME280;62868;52.360;30.424;2023-11-21T18:11:51;1028.4;;;-1.5;57.3
74437;BME280;62868;52.360;30.424;2023-11-21T18:16:09;1028.4;;;-1.5;57.2
74437;BME280;62868;52.360;30.424;2023-11-21T18:21:51;1028.5;;;-1.5;57.1
74437;BME280;62868;52.360;30.424;2023-11-21T18:26:09;1028.5;;;-1.5;57.1
74437;BME280;62868;52.360;30.424;2023-11-21T18:31:51;1028.6;;;-1.5;56.9
74437;BME280;62868;52.360;30.424;2023-11-21T18:36:09;1028.6;;;-1.5;56.9
74437;BME280;62868;52.360;30.424;2023-11-21T18:41:20;1028.7;;;-1.5;56.8
74437;BME280;62868;52.360;30.424;2023-11-21T18:46:29;1028.7;;;-1.5;56.6
74437;BME280;62868;52.360;30.424;2023-11-21T18:51:44;1028.7;;;-1.6;56.5
74437;BME280;62868;52.360;30.424;2023-11-21T18:56:51;1028.8;;;-1.6;56.3
74437;BME280;62868;52.360;30.424;2023-11-21T19:01:31;1028.8;;;-1.6;56.3
74437;BME280;62868;52.360;30.424;2023-11-21T19:06:09;1028.8;;;-1.6;56.2
74437;BME280;62868;52.360;30.424;2023-11-21T19:11:19;1028.9;;;-1.6;56.2
74437;BME280;62868;52.360;30.424;2023-11-21T19:16:09;1028.9;;;-1.7;56.1
74437;BME280;62868;52.360;30.424;2023-11-21T19:21:51;1029;;;-1.7;56.1
74437;BME280;62868;52.360;30.424;2023-11-21T19:26:21;1029.1;;;-1.8;55.9
74437;BME280;62868;52.360;30.424;2023-11-21T19:31:19;1029.2;;;-1.9;55.8
74437;BME280;62868;52.360;30.424;2023-11-21T19:36:19;1029.1;;;-1.9;55.9
74437;BME280;62868;52.360;30.424;2023-11-21T19:41:11;1029.2;;;-2;55.8
74437;BME280;62868;52.360;30.424;2023-11-21T19:46:49;1029.3;;;-2;55.8
74437;BME280;62868;52.360;30.424;2023-11-21T19:51:41;1029.3;;;-2;55.7
74437;BME280;62868;52.360;30.424;2023-11-21T19:56:29;1029.3;;;-2;55.6
74437;BME280;62868;52.360;30.424;2023-11-21T20:01:11;1029.4;;;-2;55.6
74437;BME280;62868;52.360;30.424;2023-11-21T20:06:41;1029.3;;;-2;55.5
74437;BME280;62868;52.360;30.424;2023-11-21T20:11:51;1029.4;;;-2;55.5
74437;BME280;62868;52.360;30.424;2023-11-21T20:16:39;1029.4;;;-2;55.4
74437;BME280;62868;52.360;30.424;2023-11-21T20:21:09;1029.5;;;-2;55.3
74437;BME280;62868;52.360;30.424;2023-11-21T20:26:23;1029.5;;;-1.9;55.2
74437;BME280;62868;52.360;30.424;2023-11-21T20:31:45;1029.4;;;-1.9;55.2
74437;BME280;62868;52.360;30.424;2023-11-21T20:36:55;1029.5;;;-1.9;55.2
74437;BME280;62868;52.360;30.424;2023-11-21T20:41:45;1029.5;;;-1.9;55.1
74437;BME280;62868;52.360;30.424;2023-11-21T20:46:11;1029.5;;;-1.9;55.1
74437;BME280;62868;52.360;30.424;2023-11-21T20:51:09;1029.5;;;-1.9;55
74437;BME280;62868;52.360;30.424;2023-11-21T20:56:23;1029.5;;;-1.9;55
74437;BME280;62868;52.360;30.424;2023-11-21T21:01:55;1029.6;;;-1.9;54.9
74437;BME280;62868;52.360;30.424;2023-11-21T21:06:45;1029.6;;;-2;54.9
74437;BME280;62868;52.360;30.424;2023-11-21T21:11:19;1029.6;;;-2;54.9
74437;BME280;62868;52.360;30.424;2023-11-21T21:16:31;1029.6;;;-2;54.9
74437;BME280;62868;52.360;30.424;2023-11-21T21:21:43;1029.6;;;-2;54.8
74437;BME280;62868;52.360;30.424;2023-11-21T21:26:53;1029.6;;;-1.9;54.8
74437;BME280;62868;52.360;30.424;2023-11-21T21:31:53;1029.6;;;-2;54.8
74437;BME280;62868;52.360;30.424;2023-11-21T21:36:09;1029.7;;;-1.9;54.8
74437;BME280;62868;52.360;30.424;2023-11-21T21:41:09;1029.7;;;-2;54.8
74437;BME280;62868;52.360;30.424;2023-11-21T21:46:23;1029.8;;;-2;54.8
74437;BME280;62868;52.360;30.424;2023-11-21T21:51:55;1029.9;;;-1.9;54.8
74437;BME280;62868;52.360;30.424;2023-11-21T21:56:11;1029.9;;;-2;54.8
74437;BME280;62868;52.360;30.424;2023-11-21T22:01:19;1029.9;;;-1.9;54.8
74437;BME280;62868;52.360;30.424;2023-11-21T22:06:33;1029.9;;;-1.9;54.8
74437;BME280;62868;52.360;30.424;2023-11-21T22:11:41;1030;;;-1.8;54.8
74437;BME280;62868;52.360;30.424;2023-11-21T22:16:53;1030.1;;;-1.8;54.7
74437;BME280;62868;52.360;30.424;2023-11-21T22:21:43;1030.2;;;-1.8;54.8
74437;BME280;62868;52.360;30.424;2023-11-21T22:26:21;1030.2;;;-1.9;54.8
74437;BME280;62868;52.360;30.424;2023-11-21T22:31:19;1030.1;;;-1.9;54.8
74437;BME280;62868;52.360;30.424;2023-11-21T22:36:21;1030;;;-2;54.9
74437;BME280;62868;52.360;30.424;2023-11-21T22:41:53;1030;;;-2.1;54.9
74437;BME280;62868;52.360;30.424;2023-11-21T22:46:19;1030.1;;;-2.2;54.9
74437;BME280;62868;52.360;30.424;2023-11-21T22:51:09;1030.2;;;-2.2;54.8
74437;BME280;62868;52.360;30.424;2023-11-21T22:56:21;1030.2;;;-2.2;54.8
74437;BME280;62868;52.360;30.424;2023-11-21T23:01:41;1030.1;;;-2.3;54.8
74437;BME280;62868;52.360;30.424;2023-11-21T23:06:53;1030.1;;;-2.3;54.8
74437;BME280;62868;52.360;30.424;2023-11-21T23:11:43;1030.1;;;-2.3;54.9
74437;BME280;62868;52.360;30.424;2023-11-21T23:16:09;1030.2;;;-2.3;54.9
74437;BME280;62868;52.360;30.424;2023-11-21T23:21:09;1030.2;;;-2.3;55
74437;BME280;62868;52.360;30.424;2023-11-21T23:26:19;1030.2;;;-2.3;55
74437;BME280;62868;52.360;30.424;2023-11-21T23:31:53;1030.3;;;-2.4;55.1
74437;BME280;62868;52.360;30.424;2023-11-21T23:36:11;1030.3;;;-2.3;55.1
74437;BME280;62868;52.360;30.424;2023-11-21T23:41:17;1030.3;;;-2.3;55.1
74437;BME280;62868;52.360;30.424;2023-11-21T23:46:31;1030.4;;;-2.3;55.1
74437;BME280;62868;52.360;30.424;2023-11-21T23:51:43;1030.4;;;-2.4;55.1
74437;BME280;62868;52.360;30.424;2023-11-21T23:56:53;1030.4;;;-2.4;55.2
